sensor_id;sensor_type;location;lat;lon;timestamp;temperature;humidity
24744;DHT22;12844;52.110;5.548;2023-02-11T00:01:09;18.40;51.40
24744;DHT22;12844;52.110;5.548;2023-02-11T00:03:35;18.40;51.40
24744;DHT22;12844;52.110;5.548;2023-02-11T00:06:04;18.30;51.40
24744;DHT22;12844;52.110;5.548;2023-02-11T00:08:30;18.30;51.40
24744;DHT22;12844;52.110;5.548;2023-02-11T00:10:57;18.30;51.40
24744;DHT22;12844;52.110;5.548;2023-02-11T00:13:23;18.30;51.40
24744;DHT22;12844;52.110;5.548;2023-02-11T00:15:49;18.30;51.40
24744;DHT22;12844;52.110;5.548;2023-02-11T00:18:15;18.30;51.40
24744;DHT22;12844;52.110;5.548;2023-02-11T00:20:41;18.30;51.40
24744;DHT22;12844;52.110;5.548;2023-02-11T00:23:07;18.30;51.40
24744;DHT22;12844;52.110;5.548;2023-02-11T00:25:33;18.20;51.40
24744;DHT22;12844;52.110;5.548;2023-02-11T00:27:59;18.20;51.30
24744;DHT22;12844;52.110;5.548;2023-02-11T00:30:24;18.30;51.40
24744;DHT22;12844;52.110;5.548;2023-02-11T00:32:50;18.30;51.40
24744;DHT22;12844;52.110;5.548;2023-02-11T00:35:15;18.30;51.40
24744;DHT22;12844;52.110;5.548;2023-02-11T00:37:41;18.20;51.30
24744;DHT22;12844;52.110;5.548;2023-02-11T00:40:07;18.20;51.20
24744;DHT22;12844;52.110;5.548;2023-02-11T00:42:33;18.30;51.30
24744;DHT22;12844;52.110;5.548;2023-02-11T00:45:00;18.20;51.20
24744;DHT22;12844;52.110;5.548;2023-02-11T00:47:26;18.20;51.20
24744;DHT22;12844;52.110;5.548;2023-02-11T00:49:51;18.20;51.20
24744;DHT22;12844;52.110;5.548;2023-02-11T00:52:17;18.20;51.30
24744;DHT22;12844;52.110;5.548;2023-02-11T00:54:43;18.20;51.30
24744;DHT22;12844;52.110;5.548;2023-02-11T00:57:08;18.10;51.30
24744;DHT22;12844;52.110;5.548;2023-02-11T00:59:34;18.10;51.30
24744;DHT22;12844;52.110;5.548;2023-02-11T01:01:59;18.10;51.30
24744;DHT22;12844;52.110;5.548;2023-02-11T01:04:25;18.10;51.20
24744;DHT22;12844;52.110;5.548;2023-02-11T01:06:51;18.10;51.30
24744;DHT22;12844;52.110;5.548;2023-02-11T01:09:16;18.10;51.30
24744;DHT22;12844;52.110;5.548;2023-02-11T01:11:42;18.10;51.30
24744;DHT22;12844;52.110;5.548;2023-02-11T01:14:08;18.10;51.30
24744;DHT22;12844;52.110;5.548;2023-02-11T01:16:34;18.10;51.40
24744;DHT22;12844;52.110;5.548;2023-02-11T01:18:59;18.10;51.30
24744;DHT22;12844;52.110;5.548;2023-02-11T01:21:25;18.00;51.30
24744;DHT22;12844;52.110;5.548;2023-02-11T01:23:51;18.00;51.30
24744;DHT22;12844;52.110;5.548;2023-02-11T01:26:17;18.00;51.30
24744;DHT22;12844;52.110;5.548;2023-02-11T01:28:43;18.00;51.30
24744;DHT22;12844;52.110;5.548;2023-02-11T01:31:08;18.00;51.30
24744;DHT22;12844;52.110;5.548;2023-02-11T01:33:34;18.00;51.30
24744;DHT22;12844;52.110;5.548;2023-02-11T01:36:03;18.00;51.30
24744;DHT22;12844;52.110;5.548;2023-02-11T01:38:29;18.00;51.30
24744;DHT22;12844;52.110;5.548;2023-02-11T01:40:58;17.90;51.30
24744;DHT22;12844;52.110;5.548;2023-02-11T01:43:26;17.90;51.30
24744;DHT22;12844;52.110;5.548;2023-02-11T01:48:34;17.90;51.40
24744;DHT22;12844;52.110;5.548;2023-02-11T01:51:08;17.90;51.40
24744;DHT22;12844;52.110;5.548;2023-02-11T01:53:36;18.00;51.50
24744;DHT22;12844;52.110;5.548;2023-02-11T01:56:21;17.90;51.50
24744;DHT22;12844;52.110;5.548;2023-02-11T01:59:11;17.90;51.50
24744;DHT22;12844;52.110;5.548;2023-02-11T02:01:38;17.90;51.60
24744;DHT22;12844;52.110;5.548;2023-02-11T02:04:07;17.90;51.60
24744;DHT22;12844;52.110;5.548;2023-02-11T02:06:39;17.80;51.50
24744;DHT22;12844;52.110;5.548;2023-02-11T02:09:12;17.90;51.50
24744;DHT22;12844;52.110;5.548;2023-02-11T02:11:41;17.90;51.50
24744;DHT22;12844;52.110;5.548;2023-02-11T02:14:07;17.90;51.60
24744;DHT22;12844;52.110;5.548;2023-02-11T02:16:34;17.80;51.40
24744;DHT22;12844;52.110;5.548;2023-02-11T02:22:11;17.90;51.30
24744;DHT22;12844;52.110;5.548;2023-02-11T02:25:07;17.80;51.40
24744;DHT22;12844;52.110;5.548;2023-02-11T02:30:38;17.80;51.50
24744;DHT22;12844;52.110;5.548;2023-02-11T02:33:28;17.70;51.40
24744;DHT22;12844;52.110;5.548;2023-02-11T02:35:58;17.70;51.40
24744;DHT22;12844;52.110;5.548;2023-02-11T02:38:43;17.70;51.40
24744;DHT22;12844;52.110;5.548;2023-02-11T02:41:14;17.70;51.40
24744;DHT22;12844;52.110;5.548;2023-02-11T02:43:43;17.70;51.50
24744;DHT22;12844;52.110;5.548;2023-02-11T02:46:25;17.70;51.40
24744;DHT22;12844;52.110;5.548;2023-02-11T02:48:52;17.80;51.30
24744;DHT22;12844;52.110;5.548;2023-02-11T03:04:51;17.70;50.80
24744;DHT22;12844;52.110;5.548;2023-02-11T03:07:49;17.80;50.70
24744;DHT22;12844;52.110;5.548;2023-02-11T03:10:23;17.80;50.60
24744;DHT22;12844;52.110;5.548;2023-02-11T03:12:50;17.70;50.30
24744;DHT22;12844;52.110;5.548;2023-02-11T03:15:18;17.80;50.20
24744;DHT22;12844;52.110;5.548;2023-02-11T03:17:47;17.80;50.20
24744;DHT22;12844;52.110;5.548;2023-02-11T03:20:16;17.70;50.20
24744;DHT22;12844;52.110;5.548;2023-02-11T03:25:44;17.70;50.10
24744;DHT22;12844;52.110;5.548;2023-02-11T03:31:25;17.70;50.10
24744;DHT22;12844;52.110;5.548;2023-02-11T03:34:41;17.70;50.10
24744;DHT22;12844;52.110;5.548;2023-02-11T03:37:31;17.70;49.90
24744;DHT22;12844;52.110;5.548;2023-02-11T03:40:07;17.70;50.10
24744;DHT22;12844;52.110;5.548;2023-02-11T03:42:45;17.70;50.00
24744;DHT22;12844;52.110;5.548;2023-02-11T03:45:15;17.70;50.00
24744;DHT22;12844;52.110;5.548;2023-02-11T03:47:45;17.70;49.90
24744;DHT22;12844;52.110;5.548;2023-02-11T03:50:14;17.60;49.90
24744;DHT22;12844;52.110;5.548;2023-02-11T03:52:40;17.60;49.90
24744;DHT22;12844;52.110;5.548;2023-02-11T03:55:12;17.70;49.80
24744;DHT22;12844;52.110;5.548;2023-02-11T03:57:39;17.60;49.80
24744;DHT22;12844;52.110;5.548;2023-02-11T04:00:05;17.60;49.80
24744;DHT22;12844;52.110;5.548;2023-02-11T04:02:34;17.60;49.80
24744;DHT22;12844;52.110;5.548;2023-02-11T04:05:00;17.60;49.80
24744;DHT22;12844;52.110;5.548;2023-02-11T04:07:26;17.60;49.70
24744;DHT22;12844;52.110;5.548;2023-02-11T04:09:51;17.60;49.70
24744;DHT22;12844;52.110;5.548;2023-02-11T04:12:17;17.60;49.80
24744;DHT22;12844;52.110;5.548;2023-02-11T04:14:43;17.60;49.80
24744;DHT22;12844;52.110;5.548;2023-02-11T04:17:09;17.60;50.00
24744;DHT22;12844;52.110;5.548;2023-02-11T04:19:34;17.60;49.80
24744;DHT22;12844;52.110;5.548;2023-02-11T04:22:01;17.60;49.70
24744;DHT22;12844;52.110;5.548;2023-02-11T04:24:27;17.60;49.70
24744;DHT22;12844;52.110;5.548;2023-02-11T04:26:54;17.70;49.60
24744;DHT22;12844;52.110;5.548;2023-02-11T04:29:20;17.60;49.50
24744;DHT22;12844;52.110;5.548;2023-02-11T04:31:46;17.60;49.60
24744;DHT22;12844;52.110;5.548;2023-02-11T04:34:12;17.60;49.60
24744;DHT22;12844;52.110;5.548;2023-02-11T04:36:38;17.60;49.60
24744;DHT22;12844;52.110;5.548;2023-02-11T04:39:04;17.60;49.60
24744;DHT22;12844;52.110;5.548;2023-02-11T04:41:30;17.60;49.70
24744;DHT22;12844;52.110;5.548;2023-02-11T04:43:55;17.60;49.60
24744;DHT22;12844;52.110;5.548;2023-02-11T04:46:23;17.60;49.60
24744;DHT22;12844;52.110;5.548;2023-02-11T04:48:48;17.60;49.60
24744;DHT22;12844;52.110;5.548;2023-02-11T04:51:14;17.50;50.20
24744;DHT22;12844;52.110;5.548;2023-02-11T04:53:40;17.60;49.50
24744;DHT22;12844;52.110;5.548;2023-02-11T04:56:06;17.60;49.50
24744;DHT22;12844;52.110;5.548;2023-02-11T04:58:31;17.60;49.60
24744;DHT22;12844;52.110;5.548;2023-02-11T05:01:08;17.50;49.50
24744;DHT22;12844;52.110;5.548;2023-02-11T05:03:34;17.50;49.60
24744;DHT22;12844;52.110;5.548;2023-02-11T05:06:00;17.50;49.60
24744;DHT22;12844;52.110;5.548;2023-02-11T05:08:25;17.50;49.60
24744;DHT22;12844;52.110;5.548;2023-02-11T05:10:51;17.50;49.60
24744;DHT22;12844;52.110;5.548;2023-02-11T05:13:17;17.50;49.60
24744;DHT22;12844;52.110;5.548;2023-02-11T05:15:42;17.50;49.60
24744;DHT22;12844;52.110;5.548;2023-02-11T05:18:08;17.50;49.60
24744;DHT22;12844;52.110;5.548;2023-02-11T05:20:36;17.50;49.60
24744;DHT22;12844;52.110;5.548;2023-02-11T05:23:01;17.50;49.70
24744;DHT22;12844;52.110;5.548;2023-02-11T05:25:27;17.50;49.50
24744;DHT22;12844;52.110;5.548;2023-02-11T05:27:52;17.50;49.50
24744;DHT22;12844;52.110;5.548;2023-02-11T05:30:18;17.50;49.60
24744;DHT22;12844;52.110;5.548;2023-02-11T05:32:43;17.50;49.50
24744;DHT22;12844;52.110;5.548;2023-02-11T05:35:09;17.50;49.50
24744;DHT22;12844;52.110;5.548;2023-02-11T05:37:35;17.50;49.50
24744;DHT22;12844;52.110;5.548;2023-02-11T05:40:00;17.50;49.60
24744;DHT22;12844;52.110;5.548;2023-02-11T05:42:26;17.50;49.50
24744;DHT22;12844;52.110;5.548;2023-02-11T05:44:51;17.50;49.60
24744;DHT22;12844;52.110;5.548;2023-02-11T05:47:17;17.50;49.50
24744;DHT22;12844;52.110;5.548;2023-02-11T05:49:42;17.40;49.50
24744;DHT22;12844;52.110;5.548;2023-02-11T05:52:08;17.40;49.50
24744;DHT22;12844;52.110;5.548;2023-02-11T05:54:33;17.40;49.60
24744;DHT22;12844;52.110;5.548;2023-02-11T05:56:59;17.40;49.60
24744;DHT22;12844;52.110;5.548;2023-02-11T05:59:24;17.40;49.60
24744;DHT22;12844;52.110;5.548;2023-02-11T06:01:50;17.40;49.60
24744;DHT22;12844;52.110;5.548;2023-02-11T06:04:16;17.40;49.60
24744;DHT22;12844;52.110;5.548;2023-02-11T06:06:41;17.40;49.40
24744;DHT22;12844;52.110;5.548;2023-02-11T06:09:09;17.40;49.50
24744;DHT22;12844;52.110;5.548;2023-02-11T06:11:35;17.40;49.40
24744;DHT22;12844;52.110;5.548;2023-02-11T06:14:00;17.40;49.50
24744;DHT22;12844;52.110;5.548;2023-02-11T06:16:26;17.40;49.60
24744;DHT22;12844;52.110;5.548;2023-02-11T06:18:51;17.40;49.50
24744;DHT22;12844;52.110;5.548;2023-02-11T06:21:17;17.40;49.60
24744;DHT22;12844;52.110;5.548;2023-02-11T06:23:42;17.40;49.60
24744;DHT22;12844;52.110;5.548;2023-02-11T06:26:18;17.40;49.50
24744;DHT22;12844;52.110;5.548;2023-02-11T06:28:51;17.40;49.50
24744;DHT22;12844;52.110;5.548;2023-02-11T06:31:18;17.40;49.50
24744;DHT22;12844;52.110;5.548;2023-02-11T06:33:43;17.40;49.60
24744;DHT22;12844;52.110;5.548;2023-02-11T06:36:15;17.30;49.50
24744;DHT22;12844;52.110;5.548;2023-02-11T06:38:41;17.30;49.50
24744;DHT22;12844;52.110;5.548;2023-02-11T06:41:15;17.30;49.60
24744;DHT22;12844;52.110;5.548;2023-02-11T06:43:41;17.30;49.50
24744;DHT22;12844;52.110;5.548;2023-02-11T06:46:07;17.30;49.50
24744;DHT22;12844;52.110;5.548;2023-02-11T06:48:33;17.30;49.50
24744;DHT22;12844;52.110;5.548;2023-02-11T06:51:03;17.30;49.50
24744;DHT22;12844;52.110;5.548;2023-02-11T06:53:30;17.30;49.50
24744;DHT22;12844;52.110;5.548;2023-02-11T06:56:00;17.30;49.60
24744;DHT22;12844;52.110;5.548;2023-02-11T06:58:26;17.30;49.60
24744;DHT22;12844;52.110;5.548;2023-02-11T07:00:51;17.30;49.60
24744;DHT22;12844;52.110;5.548;2023-02-11T07:03:17;17.30;49.60
24744;DHT22;12844;52.110;5.548;2023-02-11T07:05:42;17.20;49.60
24744;DHT22;12844;52.110;5.548;2023-02-11T07:08:08;17.20;49.50
24744;DHT22;12844;52.110;5.548;2023-02-11T07:10:34;17.20;49.50
24744;DHT22;12844;52.110;5.548;2023-02-11T07:12:59;17.30;49.60
24744;DHT22;12844;52.110;5.548;2023-02-11T07:15:25;17.20;49.50
24744;DHT22;12844;52.110;5.548;2023-02-11T07:17:50;17.20;49.60
24744;DHT22;12844;52.110;5.548;2023-02-11T07:20:16;17.20;49.70
24744;DHT22;12844;52.110;5.548;2023-02-11T07:22:41;17.20;49.60
24744;DHT22;12844;52.110;5.548;2023-02-11T07:25:07;17.20;49.70
24744;DHT22;12844;52.110;5.548;2023-02-11T07:27:33;17.20;49.60
24744;DHT22;12844;52.110;5.548;2023-02-11T07:29:58;17.20;49.60
24744;DHT22;12844;52.110;5.548;2023-02-11T07:32:24;17.20;49.60
24744;DHT22;12844;52.110;5.548;2023-02-11T07:34:50;17.20;49.60
24744;DHT22;12844;52.110;5.548;2023-02-11T07:37:15;17.20;49.60
24744;DHT22;12844;52.110;5.548;2023-02-11T07:39:53;17.10;50.00
24744;DHT22;12844;52.110;5.548;2023-02-11T07:42:23;17.00;50.40
24744;DHT22;12844;52.110;5.548;2023-02-11T07:44:49;16.90;50.50
24744;DHT22;12844;52.110;5.548;2023-02-11T07:47:15;17.00;50.80
24744;DHT22;12844;52.110;5.548;2023-02-11T07:49:40;17.00;50.80
24744;DHT22;12844;52.110;5.548;2023-02-11T07:52:06;17.00;50.90
24744;DHT22;12844;52.110;5.548;2023-02-11T07:54:31;17.00;50.90
24744;DHT22;12844;52.110;5.548;2023-02-11T07:56:57;17.00;51.00
24744;DHT22;12844;52.110;5.548;2023-02-11T07:59:23;17.10;51.10
24744;DHT22;12844;52.110;5.548;2023-02-11T08:01:50;17.00;51.10
24744;DHT22;12844;52.110;5.548;2023-02-11T08:04:16;17.00;51.20
24744;DHT22;12844;52.110;5.548;2023-02-11T08:06:42;17.10;51.30
24744;DHT22;12844;52.110;5.548;2023-02-11T08:09:09;17.10;51.30
24744;DHT22;12844;52.110;5.548;2023-02-11T08:11:35;17.10;51.40
24744;DHT22;12844;52.110;5.548;2023-02-11T08:14:02;17.10;51.40
24744;DHT22;12844;52.110;5.548;2023-02-11T08:16:33;17.10;51.40
24744;DHT22;12844;52.110;5.548;2023-02-11T08:19:03;17.20;51.40
24744;DHT22;12844;52.110;5.548;2023-02-11T08:21:31;17.20;51.40
24744;DHT22;12844;52.110;5.548;2023-02-11T08:24:00;17.20;51.40
24744;DHT22;12844;52.110;5.548;2023-02-11T08:26:33;17.20;51.40
24744;DHT22;12844;52.110;5.548;2023-02-11T08:29:00;17.20;51.40
24744;DHT22;12844;52.110;5.548;2023-02-11T08:31:39;17.20;51.40
24744;DHT22;12844;52.110;5.548;2023-02-11T08:34:15;17.30;51.40
24744;DHT22;12844;52.110;5.548;2023-02-11T08:36:47;17.30;51.60
24744;DHT22;12844;52.110;5.548;2023-02-11T08:39:22;17.30;51.60
24744;DHT22;12844;52.110;5.548;2023-02-11T08:41:59;17.30;51.60
24744;DHT22;12844;52.110;5.548;2023-02-11T08:44:31;17.30;51.50
24744;DHT22;12844;52.110;5.548;2023-02-11T08:47:00;17.30;51.60
24744;DHT22;12844;52.110;5.548;2023-02-11T08:49:25;17.30;51.60
24744;DHT22;12844;52.110;5.548;2023-02-11T08:51:54;17.30;51.60
24744;DHT22;12844;52.110;5.548;2023-02-11T08:54:20;17.30;51.60
24744;DHT22;12844;52.110;5.548;2023-02-11T08:56:50;17.30;51.60
24744;DHT22;12844;52.110;5.548;2023-02-11T08:59:15;17.30;51.50
24744;DHT22;12844;52.110;5.548;2023-02-11T09:01:42;17.30;51.40
24744;DHT22;12844;52.110;5.548;2023-02-11T09:04:16;17.30;51.30
24744;DHT22;12844;52.110;5.548;2023-02-11T09:06:44;17.30;51.30
24744;DHT22;12844;52.110;5.548;2023-02-11T09:09:12;17.30;51.20
24744;DHT22;12844;52.110;5.548;2023-02-11T09:11:39;17.30;51.40
24744;DHT22;12844;52.110;5.548;2023-02-11T09:14:07;17.30;51.60
24744;DHT22;12844;52.110;5.548;2023-02-11T09:16:34;17.30;51.50
24744;DHT22;12844;52.110;5.548;2023-02-11T09:19:02;17.30;51.40
24744;DHT22;12844;52.110;5.548;2023-02-11T09:21:28;17.30;51.60
24744;DHT22;12844;52.110;5.548;2023-02-11T09:23:54;17.20;51.90
24744;DHT22;12844;52.110;5.548;2023-02-11T09:26:28;17.30;51.90
24744;DHT22;12844;52.110;5.548;2023-02-11T09:28:55;17.20;51.60
24744;DHT22;12844;52.110;5.548;2023-02-11T09:31:22;17.30;51.60
24744;DHT22;12844;52.110;5.548;2023-02-11T09:33:50;17.30;51.50
24744;DHT22;12844;52.110;5.548;2023-02-11T09:36:19;17.20;51.40
24744;DHT22;12844;52.110;5.548;2023-02-11T09:38:45;17.30;51.50
24744;DHT22;12844;52.110;5.548;2023-02-11T09:43:52;17.30;51.30
24744;DHT22;12844;52.110;5.548;2023-02-11T09:46:18;17.20;51.50
24744;DHT22;12844;52.110;5.548;2023-02-11T09:48:47;17.20;51.50
24744;DHT22;12844;52.110;5.548;2023-02-11T09:51:32;17.20;51.50
24744;DHT22;12844;52.110;5.548;2023-02-11T09:54:04;17.20;51.50
24744;DHT22;12844;52.110;5.548;2023-02-11T09:56:31;17.20;51.40
24744;DHT22;12844;52.110;5.548;2023-02-11T09:58:57;17.20;51.70
24744;DHT22;12844;52.110;5.548;2023-02-11T10:01:41;17.20;51.60
24744;DHT22;12844;52.110;5.548;2023-02-11T10:04:44;17.20;52.20
24744;DHT22;12844;52.110;5.548;2023-02-11T10:07:34;17.20;51.40
24744;DHT22;12844;52.110;5.548;2023-02-11T10:10:13;17.20;51.50
24744;DHT22;12844;52.110;5.548;2023-02-11T10:15:35;17.20;51.90
24744;DHT22;12844;52.110;5.548;2023-02-11T10:18:54;17.20;51.90
24744;DHT22;12844;52.110;5.548;2023-02-11T10:21:17;17.20;52.00
24744;DHT22;12844;52.110;5.548;2023-02-11T10:23:47;17.20;52.00
24744;DHT22;12844;52.110;5.548;2023-02-11T10:26:17;17.20;52.00
24744;DHT22;12844;52.110;5.548;2023-02-11T10:28:48;17.10;52.00
24744;DHT22;12844;52.110;5.548;2023-02-11T10:31:24;17.20;52.00
24744;DHT22;12844;52.110;5.548;2023-02-11T10:34:11;17.10;52.00
24744;DHT22;12844;52.110;5.548;2023-02-11T10:36:39;17.10;52.00
24744;DHT22;12844;52.110;5.548;2023-02-11T10:41:45;17.10;52.00
24744;DHT22;12844;52.110;5.548;2023-02-11T10:44:25;17.10;52.00
24744;DHT22;12844;52.110;5.548;2023-02-11T10:46:52;17.10;52.00
24744;DHT22;12844;52.110;5.548;2023-02-11T10:49:34;17.10;52.00
24744;DHT22;12844;52.110;5.548;2023-02-11T10:57:37;17.10;52.00
24744;DHT22;12844;52.110;5.548;2023-02-11T11:00:22;17.10;52.00
24744;DHT22;12844;52.110;5.548;2023-02-11T11:02:56;17.10;51.90
24744;DHT22;12844;52.110;5.548;2023-02-11T11:05:43;17.10;52.00
24744;DHT22;12844;52.110;5.548;2023-02-11T11:08:09;17.10;52.00
24744;DHT22;12844;52.110;5.548;2023-02-11T11:10:44;17.10;52.00
24744;DHT22;12844;52.110;5.548;2023-02-11T11:13:31;17.10;52.00
24744;DHT22;12844;52.110;5.548;2023-02-11T11:18:40;17.10;52.00
24744;DHT22;12844;52.110;5.548;2023-02-11T11:21:21;17.10;52.00
24744;DHT22;12844;52.110;5.548;2023-02-11T11:23:54;17.00;52.00
24744;DHT22;12844;52.110;5.548;2023-02-11T11:26:21;17.00;52.10
24744;DHT22;12844;52.110;5.548;2023-02-11T11:31:34;17.00;52.10
24744;DHT22;12844;52.110;5.548;2023-02-11T11:36:45;17.00;52.10
24744;DHT22;12844;52.110;5.548;2023-02-11T11:39:21;17.00;52.20
24744;DHT22;12844;52.110;5.548;2023-02-11T11:41:56;17.00;52.20
24744;DHT22;12844;52.110;5.548;2023-02-11T11:44:41;17.00;52.10
24744;DHT22;12844;52.110;5.548;2023-02-11T11:49:42;17.00;52.20
24744;DHT22;12844;52.110;5.548;2023-02-11T11:57:38;16.90;52.10
24744;DHT22;12844;52.110;5.548;2023-02-11T12:00:05;16.90;52.10
24744;DHT22;12844;52.110;5.548;2023-02-11T12:02:48;17.00;52.20
24744;DHT22;12844;52.110;5.548;2023-02-11T12:13:38;17.00;52.10
24744;DHT22;12844;52.110;5.548;2023-02-11T12:26:46;16.90;52.10
24744;DHT22;12844;52.110;5.548;2023-02-11T12:29:22;16.90;52.70
24744;DHT22;12844;52.110;5.548;2023-02-11T12:38:02;16.90;51.90
24744;DHT22;12844;52.110;5.548;2023-02-11T12:51:54;16.80;52.00
24744;DHT22;12844;52.110;5.548;2023-02-11T12:54:32;16.90;52.20
24744;DHT22;12844;52.110;5.548;2023-02-11T12:57:20;16.80;52.10
24744;DHT22;12844;52.110;5.548;2023-02-11T12:59:59;16.90;52.00
24744;DHT22;12844;52.110;5.548;2023-02-11T13:08:01;16.90;52.10
24744;DHT22;12844;52.110;5.548;2023-02-11T13:10:36;17.00;52.10
24744;DHT22;12844;52.110;5.548;2023-02-11T13:13:27;17.00;52.20
24744;DHT22;12844;52.110;5.548;2023-02-11T13:16:01;16.90;52.10
24744;DHT22;12844;52.110;5.548;2023-02-11T13:24:23;16.90;52.20
24744;DHT22;12844;52.110;5.548;2023-02-11T13:26:57;16.90;52.20
24744;DHT22;12844;52.110;5.548;2023-02-11T13:36:09;16.90;52.10
24744;DHT22;12844;52.110;5.548;2023-02-11T13:38:35;16.90;52.30
24744;DHT22;12844;52.110;5.548;2023-02-11T13:41:39;16.80;52.20
24744;DHT22;12844;52.110;5.548;2023-02-11T13:49:25;16.90;52.20
24744;DHT22;12844;52.110;5.548;2023-02-11T13:51:53;16.90;52.20
24744;DHT22;12844;52.110;5.548;2023-02-11T13:54:26;16.80;52.20
24744;DHT22;12844;52.110;5.548;2023-02-11T13:57:22;16.90;52.20
24744;DHT22;12844;52.110;5.548;2023-02-11T13:59:52;16.90;52.20
24744;DHT22;12844;52.110;5.548;2023-02-11T14:02:28;16.80;52.20
24744;DHT22;12844;52.110;5.548;2023-02-11T14:10:55;16.80;53.00
24744;DHT22;12844;52.110;5.548;2023-02-11T14:19:42;16.80;52.30
24744;DHT22;12844;52.110;5.548;2023-02-11T14:27:16;16.70;52.30
24744;DHT22;12844;52.110;5.548;2023-02-11T14:29:59;16.80;52.30
24744;DHT22;12844;52.110;5.548;2023-02-11T14:35:39;16.80;52.30
24744;DHT22;12844;52.110;5.548;2023-02-11T14:38:51;16.80;52.40
24744;DHT22;12844;52.110;5.548;2023-02-11T14:41:24;16.80;52.40
24744;DHT22;12844;52.110;5.548;2023-02-11T14:43:52;16.70;52.50
24744;DHT22;12844;52.110;5.548;2023-02-11T14:46:21;16.70;52.50
24744;DHT22;12844;52.110;5.548;2023-02-11T14:48:53;16.70;52.50
24744;DHT22;12844;52.110;5.548;2023-02-11T14:51:25;16.70;52.40
24744;DHT22;12844;52.110;5.548;2023-02-11T14:53:56;16.70;52.40
24744;DHT22;12844;52.110;5.548;2023-02-11T14:56:27;16.70;52.50
24744;DHT22;12844;52.110;5.548;2023-02-11T14:58:56;16.70;52.40
24744;DHT22;12844;52.110;5.548;2023-02-11T15:03:53;16.70;52.40
24744;DHT22;12844;52.110;5.548;2023-02-11T15:08:56;16.70;52.40
24744;DHT22;12844;52.110;5.548;2023-02-11T15:11:26;16.70;52.40
24744;DHT22;12844;52.110;5.548;2023-02-11T15:13:54;16.70;52.40
24744;DHT22;12844;52.110;5.548;2023-02-11T15:16:26;16.70;52.50
24744;DHT22;12844;52.110;5.548;2023-02-11T15:18:55;16.70;52.40
24744;DHT22;12844;52.110;5.548;2023-02-11T15:21:31;16.70;52.40
24744;DHT22;12844;52.110;5.548;2023-02-11T15:24:17;16.70;53.00
24744;DHT22;12844;52.110;5.548;2023-02-11T15:26:54;16.70;52.50
24744;DHT22;12844;52.110;5.548;2023-02-11T15:29:23;16.60;52.40
24744;DHT22;12844;52.110;5.548;2023-02-11T15:32:05;16.70;52.50
24744;DHT22;12844;52.110;5.548;2023-02-11T15:34:32;16.70;52.40
24744;DHT22;12844;52.110;5.548;2023-02-11T15:36:58;16.70;52.50
24744;DHT22;12844;52.110;5.548;2023-02-11T15:39:42;16.70;52.50
24744;DHT22;12844;52.110;5.548;2023-02-11T15:42:25;16.70;52.40
24744;DHT22;12844;52.110;5.548;2023-02-11T15:48:08;16.70;52.40
24744;DHT22;12844;52.110;5.548;2023-02-11T15:50:35;16.70;52.50
24744;DHT22;12844;52.110;5.548;2023-02-11T15:55:43;16.60;52.40
24744;DHT22;12844;52.110;5.548;2023-02-11T15:58:10;16.60;52.40
24744;DHT22;12844;52.110;5.548;2023-02-11T16:00:44;16.60;52.40
24744;DHT22;12844;52.110;5.548;2023-02-11T16:03:20;16.60;52.40
24744;DHT22;12844;52.110;5.548;2023-02-11T16:05:46;16.60;52.40
24744;DHT22;12844;52.110;5.548;2023-02-11T16:08:27;16.60;52.40
24744;DHT22;12844;52.110;5.548;2023-02-11T16:11:02;16.60;52.40
24744;DHT22;12844;52.110;5.548;2023-02-11T16:13:43;16.60;52.50
24744;DHT22;12844;52.110;5.548;2023-02-11T16:16:21;16.70;52.50
24744;DHT22;12844;52.110;5.548;2023-02-11T16:19:12;16.60;52.40
24744;DHT22;12844;52.110;5.548;2023-02-11T16:21:43;16.70;52.50
24744;DHT22;12844;52.110;5.548;2023-02-11T16:24:27;16.60;52.40
24744;DHT22;12844;52.110;5.548;2023-02-11T16:26:56;16.70;52.40
24744;DHT22;12844;52.110;5.548;2023-02-11T16:29:28;16.70;52.40
24744;DHT22;12844;52.110;5.548;2023-02-11T16:32:05;16.70;52.40
24744;DHT22;12844;52.110;5.548;2023-02-11T16:34:31;16.70;52.30
24744;DHT22;12844;52.110;5.548;2023-02-11T16:36:57;16.70;52.30
24744;DHT22;12844;52.110;5.548;2023-02-11T16:39:22;16.70;52.20
24744;DHT22;12844;52.110;5.548;2023-02-11T16:41:50;16.70;52.20
24744;DHT22;12844;52.110;5.548;2023-02-11T16:44:16;16.70;52.20
24744;DHT22;12844;52.110;5.548;2023-02-11T16:46:42;16.70;52.30
24744;DHT22;12844;52.110;5.548;2023-02-11T16:51:42;16.70;52.20
24744;DHT22;12844;52.110;5.548;2023-02-11T16:54:12;16.70;52.20
24744;DHT22;12844;52.110;5.548;2023-02-11T16:56:38;16.70;52.20
24744;DHT22;12844;52.110;5.548;2023-02-11T16:59:04;16.70;52.20
24744;DHT22;12844;52.110;5.548;2023-02-11T17:01:30;16.70;52.20
24744;DHT22;12844;52.110;5.548;2023-02-11T17:03:56;16.70;52.20
24744;DHT22;12844;52.110;5.548;2023-02-11T17:06:22;16.70;52.20
24744;DHT22;12844;52.110;5.548;2023-02-11T17:08:47;16.70;52.20
24744;DHT22;12844;52.110;5.548;2023-02-11T17:11:13;16.70;52.20
24744;DHT22;12844;52.110;5.548;2023-02-11T17:13:41;16.70;52.20
24744;DHT22;12844;52.110;5.548;2023-02-11T17:16:16;16.70;52.20
24744;DHT22;12844;52.110;5.548;2023-02-11T17:18:42;16.70;52.20
24744;DHT22;12844;52.110;5.548;2023-02-11T17:21:08;16.70;52.20
24744;DHT22;12844;52.110;5.548;2023-02-11T17:23:33;16.70;52.20
24744;DHT22;12844;52.110;5.548;2023-02-11T17:25:59;16.70;52.30
24744;DHT22;12844;52.110;5.548;2023-02-11T17:28:24;16.60;52.20
24744;DHT22;12844;52.110;5.548;2023-02-11T17:30:50;16.60;52.20
24744;DHT22;12844;52.110;5.548;2023-02-11T17:33:16;16.70;52.20
24744;DHT22;12844;52.110;5.548;2023-02-11T17:35:43;16.70;52.20
24744;DHT22;12844;52.110;5.548;2023-02-11T17:38:09;16.60;52.20
24744;DHT22;12844;52.110;5.548;2023-02-11T17:40:34;16.60;52.10
24744;DHT22;12844;52.110;5.548;2023-02-11T17:43:00;16.60;52.20
24744;DHT22;12844;52.110;5.548;2023-02-11T17:45:25;16.60;52.20
24744;DHT22;12844;52.110;5.548;2023-02-11T17:47:51;16.60;52.20
24744;DHT22;12844;52.110;5.548;2023-02-11T17:50:16;16.60;52.10
24744;DHT22;12844;52.110;5.548;2023-02-11T17:52:42;16.70;52.20
24744;DHT22;12844;52.110;5.548;2023-02-11T17:55:07;16.70;52.10
24744;DHT22;12844;52.110;5.548;2023-02-11T17:57:33;16.70;52.00
24744;DHT22;12844;52.110;5.548;2023-02-11T17:59:59;16.70;52.00
24744;DHT22;12844;52.110;5.548;2023-02-11T18:02:24;16.70;52.00
24744;DHT22;12844;52.110;5.548;2023-02-11T18:04:50;16.70;51.90
24744;DHT22;12844;52.110;5.548;2023-02-11T18:07:16;16.70;51.90
24744;DHT22;12844;52.110;5.548;2023-02-11T18:09:44;16.70;51.90
24744;DHT22;12844;52.110;5.548;2023-02-11T18:12:09;16.70;52.00
24744;DHT22;12844;52.110;5.548;2023-02-11T18:14:38;16.70;52.00
24744;DHT22;12844;52.110;5.548;2023-02-11T18:17:04;16.70;51.90
24744;DHT22;12844;52.110;5.548;2023-02-11T18:19:30;16.70;51.90